createdAt,value
2022-08-27T00:00:47.412Z,7.60
2022-08-27T00:03:15.093Z,8.23
2022-08-27T00:05:42.519Z,6.68
2022-08-27T00:08:12.500Z,7.57
2022-08-27T00:10:40.829Z,7.05
2022-08-27T00:13:08.356Z,6.90
2022-08-27T00:15:35.986Z,7.07
2022-08-27T00:18:04.348Z,7.05
2022-08-27T00:20:31.826Z,7.47
2022-08-27T00:22:59.303Z,7.85
2022-08-27T00:25:27.387Z,6.85
2022-08-27T00:27:54.769Z,6.85
2022-08-27T00:30:22.664Z,7.00
2022-08-27T00:32:50.421Z,7.72
2022-08-27T00:35:18.699Z,7.22
2022-08-27T00:37:46.142Z,7.35
2022-08-27T00:40:16.681Z,8.43
2022-08-27T00:42:46.002Z,7.43
2022-08-27T00:45:15.396Z,7.28
2022-08-27T00:47:45.585Z,6.28
2022-08-27T00:50:18.048Z,7.93
2022-08-27T00:52:51.228Z,8.35
2022-08-27T00:55:21.728Z,6.60
2022-08-27T00:58:14.015Z,7.35
2022-08-27T01:00:42.425Z,7.07
2022-08-27T01:03:10.147Z,7.35
2022-08-27T01:05:38.291Z,7.55
2022-08-27T01:08:14.230Z,7.43
2022-08-27T01:10:42.052Z,6.93
2022-08-27T01:13:10.580Z,6.82
2022-08-27T01:15:38.543Z,6.80
2022-08-27T01:18:06.242Z,7.05
2022-08-27T01:20:51.736Z,7.18
2022-08-27T01:23:22.303Z,7.32
2022-08-27T01:25:50.098Z,7.57
2022-08-27T01:28:17.583Z,7.05
2022-08-27T01:30:51.557Z,7.60
2022-08-27T01:33:20.688Z,6.70
2022-08-27T01:35:49.116Z,6.95
2022-08-27T01:38:30.443Z,6.70
2022-08-27T01:40:59.480Z,7.37
2022-08-27T01:43:28.876Z,7.07
2022-08-27T01:45:56.272Z,7.43
2022-08-27T01:48:23.689Z,7.18
2022-08-27T01:50:51.416Z,8.48
2022-08-27T01:53:23.045Z,7.30
2022-08-27T01:55:51.778Z,6.85
2022-08-27T01:58:20.871Z,7.10
2022-08-27T02:00:51.998Z,7.10
2022-08-27T02:05:51.698Z,7.15
2022-08-27T02:08:19.282Z,6.90
2022-08-27T02:10:47.665Z,7.00
2022-08-27T02:13:15.274Z,7.35
2022-08-27T02:15:43.090Z,7.18
2022-08-27T02:18:11.008Z,7.00
2022-08-27T02:20:38.515Z,7.10
2022-08-27T02:23:06.322Z,6.53
2022-08-27T02:25:34.402Z,6.85
2022-08-27T02:28:01.983Z,7.00
2022-08-27T02:30:30.224Z,7.15
2022-08-27T02:33:00.900Z,6.68
2022-08-27T02:35:29.385Z,7.22
2022-08-27T02:37:57.023Z,7.75
2022-08-27T02:40:25.065Z,7.05
2022-08-27T02:42:52.527Z,6.82
2022-08-27T02:45:20.448Z,6.40
2022-08-27T02:47:48.541Z,6.60
2022-08-27T02:50:16.048Z,7.12
2022-08-27T02:52:45.929Z,7.85
2022-08-27T02:55:14.564Z,7.15
2022-08-27T02:57:45.172Z,7.43
2022-08-27T03:00:14.424Z,7.03
2022-08-27T03:02:42.174Z,6.70
2022-08-27T03:05:10.128Z,6.90
2022-08-27T03:07:37.527Z,7.35
2022-08-27T03:10:05.554Z,7.12
2022-08-27T03:12:34.315Z,7.70
2022-08-27T03:15:05.456Z,6.40
2022-08-27T03:17:51.682Z,7.18
2022-08-27T03:20:19.112Z,6.78
2022-08-27T03:22:46.807Z,7.30
2022-08-27T03:25:14.264Z,7.32
2022-08-27T03:27:41.691Z,7.37
2022-08-27T03:30:12.754Z,6.90
2022-08-27T03:32:40.157Z,6.75
2022-08-27T03:35:07.938Z,6.60
2022-08-27T03:37:35.605Z,7.25
2022-08-27T03:40:04.040Z,6.57
2022-08-27T03:42:31.502Z,6.68
2022-08-27T03:44:59.182Z,6.53
2022-08-27T03:47:26.687Z,6.93
2022-08-27T03:49:54.100Z,7.53
2022-08-27T03:52:21.816Z,6.00
2022-08-27T03:54:49.251Z,7.22
2022-08-27T03:57:16.632Z,6.60
2022-08-27T03:59:44.379Z,6.90
2022-08-27T04:02:12.182Z,6.60
2022-08-27T04:04:42.616Z,6.90
2022-08-27T04:07:10.580Z,7.53
2022-08-27T04:09:38.016Z,7.28
2022-08-27T04:12:05.873Z,6.55
2022-08-27T04:14:33.931Z,6.78
2022-08-27T04:17:01.342Z,6.15
2022-08-27T04:19:30.886Z,7.62
2022-08-27T04:22:00.332Z,6.53
2022-08-27T04:24:28.644Z,6.40
2022-08-27T04:26:56.371Z,6.55
2022-08-27T04:29:24.142Z,7.43
2022-08-27T04:31:51.546Z,9.57
2022-08-27T04:34:19.232Z,7.70
2022-08-27T04:36:46.624Z,7.60
2022-08-27T04:39:14.266Z,7.93
2022-08-27T04:41:42.351Z,7.62
2022-08-27T04:44:10.250Z,6.55
2022-08-27T04:46:39.144Z,7.60
2022-08-27T04:49:10.279Z,8.23
2022-08-27T04:51:39.976Z,7.82
2022-08-27T04:54:08.195Z,7.90
2022-08-27T04:56:36.219Z,7.30
2022-08-27T04:59:08.098Z,7.57
2022-08-27T05:01:36.279Z,9.50
2022-08-27T05:04:04.049Z,7.40
2022-08-27T05:06:31.471Z,6.93
2022-08-27T05:08:59.154Z,7.60
2022-08-27T05:11:27.875Z,6.60
2022-08-27T05:13:55.255Z,7.78
2022-08-27T05:16:23.128Z,6.87
2022-08-27T05:18:51.067Z,7.35
2022-08-27T05:21:20.459Z,6.85
2022-08-27T05:23:48.237Z,7.57
2022-08-27T05:26:15.669Z,7.95
2022-08-27T05:28:43.100Z,6.90
2022-08-27T05:31:11.951Z,6.78
2022-08-27T05:33:39.551Z,7.57
2022-08-27T05:36:07.351Z,7.55
2022-08-27T05:38:35.140Z,7.45
2022-08-27T05:41:06.351Z,7.43
2022-08-27T05:43:34.048Z,8.18
2022-08-27T05:46:05.267Z,8.25
2022-08-27T05:48:33.051Z,8.75
2022-08-27T05:51:10.616Z,8.05
2022-08-27T05:53:38.972Z,7.62
2022-08-27T05:56:13.266Z,7.43
2022-08-27T05:58:59.506Z,7.70
2022-08-27T06:01:27.032Z,8.45
2022-08-27T06:03:55.136Z,9.00
2022-08-27T06:06:25.512Z,8.55
2022-08-27T06:08:53.493Z,8.32
2022-08-27T06:11:21.303Z,8.65
2022-08-27T06:13:48.709Z,8.68
2022-08-27T06:16:17.466Z,9.43
2022-08-27T06:18:45.935Z,4.50
2022-08-27T06:21:13.575Z,4.05
2022-08-27T06:23:41.093Z,4.28
2022-08-27T06:26:10.234Z,4.12
2022-08-27T06:28:39.014Z,5.28
2022-08-27T06:31:13.196Z,4.30
2022-08-27T06:33:41.428Z,4.53
2022-08-27T06:36:10.550Z,4.10
2022-08-27T06:38:38.027Z,3.53
2022-08-27T06:41:16.526Z,3.60
2022-08-27T06:43:50.943Z,3.87
2022-08-27T06:46:20.211Z,4.00
2022-08-27T06:48:48.429Z,4.00
2022-08-27T06:51:27.493Z,4.85
2022-08-27T06:53:55.835Z,3.90
2022-08-27T06:56:23.336Z,6.35
2022-08-27T06:58:55.378Z,4.32
2022-08-27T07:01:28.207Z,3.83
2022-08-27T07:03:58.836Z,4.62
2022-08-27T07:06:27.243Z,4.28
2022-08-27T07:08:54.669Z,3.75
2022-08-27T07:11:22.179Z,4.00
2022-08-27T07:13:49.846Z,4.18
2022-08-27T07:16:20.028Z,4.43
2022-08-27T07:18:51.045Z,4.20
2022-08-27T07:21:21.751Z,4.10
2022-08-27T07:23:50.242Z,3.83
2022-08-27T07:26:19.385Z,3.97
2022-08-27T07:28:46.787Z,4.05
2022-08-27T07:31:17.088Z,3.92
2022-08-27T07:33:52.195Z,4.80
2022-08-27T07:38:57.026Z,4.65
2022-08-27T07:41:30.723Z,4.30
2022-08-27T07:44:18.767Z,4.03
2022-08-27T07:46:48.443Z,4.80
2022-08-27T07:49:17.694Z,3.87
2022-08-27T07:51:45.206Z,3.92
2022-08-27T07:54:12.601Z,4.00
2022-08-27T07:56:40.388Z,5.20
2022-08-27T07:59:08.278Z,4.62
2022-08-27T08:01:35.788Z,6.07
2022-08-27T08:04:03.686Z,3.67
2022-08-27T08:06:31.330Z,5.25
2022-08-27T08:08:59.487Z,4.55
2022-08-27T08:11:27.176Z,3.62
2022-08-27T08:13:54.590Z,6.55
2022-08-27T08:16:27.206Z,5.50
2022-08-27T08:18:57.396Z,6.10
2022-08-27T08:21:24.787Z,7.25
2022-08-27T08:23:52.441Z,3.85
2022-08-27T08:26:20.249Z,3.87
2022-08-27T08:28:47.818Z,4.03
2022-08-27T08:31:15.346Z,4.80
2022-08-27T08:33:43.103Z,9.95
2022-08-27T08:36:12.825Z,7.37
2022-08-27T08:38:40.398Z,11.40
2022-08-27T08:41:32.070Z,11.65
2022-08-27T08:44:04.772Z,11.27
2022-08-27T08:46:39.825Z,11.98
2022-08-27T08:49:22.055Z,11.18
2022-08-27T08:51:51.971Z,11.70
2022-08-27T08:54:20.851Z,11.60
2022-08-27T08:57:00.394Z,10.77
2022-08-27T08:59:35.226Z,10.80
2022-08-27T09:02:02.667Z,11.15
2022-08-27T09:04:30.414Z,12.05
2022-08-27T09:07:19.370Z,11.00
2022-08-27T09:09:48.084Z,10.80
2022-08-27T09:12:19.315Z,10.32
2022-08-27T09:14:47.473Z,10.75
2022-08-27T09:17:14.902Z,10.15
2022-08-27T09:19:43.031Z,10.88
2022-08-27T09:22:13.247Z,10.80
2022-08-27T09:24:49.739Z,10.35
2022-08-27T09:27:17.499Z,10.18
2022-08-27T09:29:53.039Z,10.18
2022-08-27T09:32:25.978Z,10.52
2022-08-27T09:34:58.242Z,9.60
2022-08-27T09:37:34.707Z,10.10
2022-08-27T09:40:32.725Z,9.77
2022-08-27T09:43:15.885Z,9.85
2022-08-27T09:45:51.712Z,9.88
2022-08-27T09:48:21.421Z,9.60
2022-08-27T09:51:00.155Z,10.63
2022-08-27T09:53:33.926Z,10.52
2022-08-27T09:56:09.107Z,10.33
2022-08-27T09:58:43.011Z,10.90
2022-08-27T10:01:31.788Z,10.65
2022-08-27T10:04:27.540Z,10.82
2022-08-27T10:06:54.988Z,10.82
2022-08-27T10:09:26.828Z,10.07
2022-08-27T10:12:15.365Z,10.98
2022-08-27T10:14:45.316Z,10.05
2022-08-27T10:17:24.846Z,9.80
2022-08-27T10:20:21.627Z,9.40
2022-08-27T10:23:23.355Z,10.00
2022-08-27T10:25:59.048Z,9.52
2022-08-27T10:28:36.809Z,10.23
2022-08-27T10:31:13.656Z,9.50
2022-08-27T10:33:57.029Z,10.15
2022-08-27T10:36:48.795Z,10.55
2022-08-27T10:39:38.522Z,10.63
2022-08-27T10:42:40.323Z,10.50
2022-08-27T10:45:50.230Z,11.05
2022-08-27T10:48:24.576Z,11.80
2022-08-27T10:50:56.307Z,11.27
2022-08-27T10:53:27.498Z,12.25
2022-08-27T10:56:10.530Z,12.13
2022-08-27T10:58:54.187Z,3.35
2022-08-27T11:01:34.699Z,3.35
2022-08-27T11:04:06.856Z,3.53
2022-08-27T11:06:39.835Z,12.85
2022-08-27T11:09:13.403Z,12.45
2022-08-27T11:14:43.244Z,12.88
2022-08-27T11:17:20.526Z,11.68
2022-08-27T11:20:12.490Z,12.35
2022-08-27T11:22:47.947Z,12.02
2022-08-27T11:25:27.864Z,12.30
2022-08-27T11:27:55.383Z,13.40
2022-08-27T11:30:34.493Z,13.25
2022-08-27T11:33:07.226Z,13.02
2022-08-27T11:36:13.343Z,13.48
2022-08-27T11:38:50.543Z,12.52
2022-08-27T11:41:46.683Z,12.70
2022-08-27T11:44:14.607Z,12.20
2022-08-27T11:46:54.392Z,13.13
2022-08-27T11:49:41.456Z,12.52
2022-08-27T11:52:09.185Z,12.57
2022-08-27T11:54:48.371Z,11.30
2022-08-27T11:57:26.560Z,12.30
2022-08-27T11:59:53.976Z,12.27
2022-08-27T12:02:26.915Z,12.07
2022-08-27T12:05:05.832Z,12.18
2022-08-27T12:07:34.802Z,12.37
2022-08-27T12:10:12.768Z,12.20
2022-08-27T12:12:52.398Z,11.18
2022-08-27T12:15:31.236Z,11.50
2022-08-27T12:18:43.331Z,11.70
2022-08-27T12:21:22.271Z,11.90
2022-08-27T12:24:21.027Z,11.85
2022-08-27T12:27:13.099Z,11.95
2022-08-27T12:29:44.073Z,11.80
2022-08-27T12:32:33.954Z,12.18
2022-08-27T12:35:26.928Z,12.52
2022-08-27T12:38:17.675Z,12.20
2022-08-27T12:40:54.055Z,12.80
2022-08-27T12:43:26.408Z,12.07
2022-08-27T12:46:04.613Z,13.65
2022-08-27T12:48:40.079Z,12.88
2022-08-27T12:51:31.283Z,11.95
2022-08-27T12:54:05.761Z,12.65
2022-08-27T12:56:52.590Z,12.73
2022-08-27T12:59:27.099Z,12.40
2022-08-27T13:02:01.748Z,12.48
2022-08-27T13:04:31.031Z,12.90
2022-08-27T13:06:58.472Z,12.13
2022-08-27T13:09:33.752Z,13.30
2022-08-27T13:14:38.547Z,11.90
2022-08-27T13:17:12.071Z,11.68
2022-08-27T13:19:50.891Z,12.85
2022-08-27T13:22:32.430Z,12.32
2022-08-27T13:25:00.060Z,12.40
2022-08-27T13:27:32.721Z,12.07
2022-08-27T13:30:06.976Z,12.35
2022-08-27T13:32:34.703Z,12.13
2022-08-27T13:35:02.108Z,12.65
2022-08-27T13:37:35.219Z,11.65
2022-08-27T13:40:03.252Z,11.45
2022-08-27T13:42:31.637Z,11.68
2022-08-27T13:45:04.446Z,11.15
2022-08-27T13:47:32.102Z,11.70
2022-08-27T13:50:07.937Z,11.48
2022-08-27T13:52:56.767Z,11.77
2022-08-27T13:55:24.266Z,11.00
2022-08-27T13:57:52.038Z,11.15
2022-08-27T14:00:31.560Z,12.43
2022-08-27T14:03:00.971Z,11.15
2022-08-27T14:05:31.104Z,12.13
2022-08-27T14:08:00.569Z,11.45
2022-08-27T14:10:39.418Z,12.25
2022-08-27T14:13:12.687Z,11.65
2022-08-27T14:15:42.639Z,11.95
2022-08-27T14:18:58.226Z,11.98
2022-08-27T14:21:23.012Z,11.23
2022-08-27T14:23:50.805Z,11.35
2022-08-27T14:26:18.247Z,11.48
2022-08-27T14:28:46.046Z,12.60
2022-08-27T14:31:13.936Z,12.15
2022-08-27T14:33:41.503Z,11.75
2022-08-27T14:36:09.023Z,11.73
2022-08-27T14:38:38.194Z,11.45
2022-08-27T14:41:08.571Z,11.98
2022-08-27T14:43:36.353Z,11.18
2022-08-27T14:46:04.240Z,11.57
2022-08-27T14:48:33.218Z,11.80
2022-08-27T14:51:02.511Z,12.37
2022-08-27T14:53:30.192Z,12.18
2022-08-27T14:55:59.372Z,12.02
2022-08-27T14:58:26.979Z,12.18
2022-08-27T15:00:56.430Z,11.57
2022-08-27T15:03:26.718Z,11.77
2022-08-27T15:05:54.973Z,12.18
2022-08-27T15:08:27.658Z,12.05
2022-08-27T15:10:57.986Z,11.73
2022-08-27T15:13:25.722Z,13.52
2022-08-27T15:15:53.180Z,11.70
2022-08-27T15:18:20.688Z,12.23
2022-08-27T15:20:48.578Z,11.75
2022-08-27T15:23:15.992Z,11.60
2022-08-27T15:25:44.671Z,11.82
2022-08-27T15:28:12.605Z,11.43
2022-08-27T15:30:40.226Z,11.20
2022-08-27T15:33:07.718Z,11.40
2022-08-27T15:35:35.412Z,11.15
2022-08-27T15:38:02.945Z,12.60
2022-08-27T15:40:32.088Z,11.48
2022-08-27T15:43:02.317Z,13.77
2022-08-27T15:45:31.182Z,12.60
2022-08-27T15:47:59.305Z,12.88
2022-08-27T15:50:27.546Z,11.63
2022-08-27T15:52:58.251Z,12.48
2022-08-27T15:55:28.106Z,11.82
2022-08-27T15:57:55.790Z,11.80
2022-08-27T16:00:24.292Z,11.48
2022-08-27T16:02:52.142Z,12.07
2022-08-27T16:05:19.868Z,12.80
2022-08-27T16:07:47.338Z,12.65
2022-08-27T16:10:15.185Z,12.48
2022-08-27T16:12:42.567Z,12.18
2022-08-27T16:15:10.244Z,13.48
2022-08-27T16:17:37.962Z,13.02
2022-08-27T16:20:06.136Z,13.27
2022-08-27T16:22:34.828Z,14.30
2022-08-27T16:25:02.842Z,13.25
2022-08-27T16:27:30.390Z,13.82
2022-08-27T16:29:57.841Z,15.88
2022-08-27T16:32:25.902Z,16.30
2022-08-27T16:34:55.719Z,14.10
2022-08-27T16:37:26.547Z,13.38
2022-08-27T16:39:54.230Z,12.48
2022-08-27T16:42:21.930Z,12.98
2022-08-27T16:44:49.377Z,12.65
2022-08-27T16:47:17.086Z,13.38
2022-08-27T16:50:03.186Z,10.50
2022-08-27T16:52:30.842Z,11.50
2022-08-27T16:55:00.038Z,11.52
2022-08-27T16:57:27.454Z,11.23
2022-08-27T16:59:55.842Z,12.05
2022-08-27T17:02:30.338Z,10.45
2022-08-27T17:05:12.394Z,11.30
2022-08-27T17:07:49.304Z,10.82
2022-08-27T17:10:18.403Z,11.12
2022-08-27T17:12:46.981Z,11.35
2022-08-27T17:15:17.432Z,11.12
2022-08-27T17:17:45.253Z,11.85
2022-08-27T17:20:15.005Z,10.68
2022-08-27T17:22:43.336Z,12.05
2022-08-27T17:25:11.023Z,11.98
2022-08-27T17:27:38.398Z,12.98
2022-08-27T17:30:06.707Z,12.98
2022-08-27T17:32:37.173Z,12.10
2022-08-27T17:35:06.590Z,13.55
2022-08-27T17:37:34.458Z,13.80
2022-08-27T17:40:02.291Z,12.27
2022-08-27T17:42:31.057Z,14.30
2022-08-27T17:44:58.568Z,13.62
2022-08-27T17:47:26.889Z,13.62
2022-08-27T17:49:54.250Z,12.80
2022-08-27T17:52:22.367Z,13.07
2022-08-27T17:54:51.797Z,12.95
2022-08-27T17:57:23.922Z,12.18
2022-08-27T17:59:52.171Z,12.00
2022-08-27T18:02:22.405Z,13.10
2022-08-27T18:04:50.326Z,12.18
2022-08-27T18:07:18.882Z,13.27
2022-08-27T18:09:48.076Z,12.60
2022-08-27T18:12:17.992Z,12.10
2022-08-27T18:14:45.935Z,12.52
2022-08-27T18:17:13.673Z,10.93
2022-08-27T18:19:45.467Z,11.18
2022-08-27T18:22:13.240Z,11.88
2022-08-27T18:24:40.728Z,10.55
2022-08-27T18:27:08.378Z,11.30
2022-08-27T18:29:35.716Z,11.18
2022-08-27T18:32:04.999Z,11.45
2022-08-27T18:34:32.646Z,10.82
2022-08-27T18:37:00.007Z,10.63
2022-08-27T18:39:28.194Z,10.98
2022-08-27T18:41:55.824Z,10.55
2022-08-27T18:44:23.318Z,10.60
2022-08-27T18:46:51.638Z,10.23
2022-08-27T18:49:19.587Z,10.52
2022-08-27T18:51:50.657Z,11.45
2022-08-27T18:54:21.164Z,12.30
2022-08-27T18:56:48.665Z,10.27
2022-08-27T18:59:16.216Z,10.60
2022-08-27T19:01:43.971Z,10.60
2022-08-27T19:04:11.469Z,10.50
2022-08-27T19:06:38.910Z,10.27
2022-08-27T19:09:06.876Z,10.35
2022-08-27T19:11:34.233Z,4.25
2022-08-27T19:14:01.597Z,4.95
2022-08-27T19:16:46.520Z,4.95
2022-08-27T19:19:14.823Z,4.30
2022-08-27T19:21:42.617Z,4.55
2022-08-27T19:24:10.123Z,4.57
2022-08-27T19:26:37.486Z,4.85
2022-08-27T19:29:05.265Z,4.05
2022-08-27T19:31:34.667Z,4.75
2022-08-27T19:34:08.656Z,3.90
2022-08-27T19:36:39.059Z,4.57
2022-08-27T19:39:06.714Z,3.80
2022-08-27T19:41:34.119Z,4.28
2022-08-27T19:44:02.950Z,4.55
2022-08-27T19:46:32.820Z,4.53
2022-08-27T19:49:00.179Z,4.40
2022-08-27T19:51:27.865Z,5.07
2022-08-27T19:53:55.246Z,4.05
2022-08-27T19:56:22.588Z,4.30
2022-08-27T19:58:53.011Z,3.67
2022-08-27T20:01:24.074Z,4.20
2022-08-27T20:03:51.775Z,4.70
2022-08-27T20:06:19.662Z,4.43
2022-08-27T20:08:50.565Z,3.87
2022-08-27T20:11:22.020Z,4.28
2022-08-27T20:13:50.817Z,5.00
2022-08-27T20:16:19.070Z,4.97
2022-08-27T20:18:46.530Z,4.28
2022-08-27T20:21:13.963Z,4.18
2022-08-27T20:23:41.642Z,4.65
2022-08-27T20:26:09.338Z,4.62
2022-08-27T20:28:39.766Z,4.70
2022-08-27T20:31:08.300Z,6.80
2022-08-27T20:33:35.678Z,4.75
2022-08-27T20:36:03.414Z,4.53
2022-08-27T20:38:31.033Z,4.65
2022-08-27T20:40:58.382Z,4.53
2022-08-27T20:43:25.770Z,4.35
2022-08-27T20:45:53.460Z,4.82
2022-08-27T20:48:20.886Z,4.50
2022-08-27T20:50:48.253Z,4.70
2022-08-27T20:53:15.964Z,4.80
2022-08-27T20:55:43.348Z,5.15
2022-08-27T20:58:29.442Z,4.80
2022-08-27T21:00:57.160Z,4.22
2022-08-27T21:03:24.754Z,4.85
2022-08-27T21:05:52.552Z,4.65
2022-08-27T21:08:20.313Z,5.35
2022-08-27T21:10:56.767Z,5.12
2022-08-27T21:13:25.159Z,4.18
2022-08-27T21:15:56.402Z,4.40
2022-08-27T21:18:29.716Z,4.78
2022-08-27T21:21:01.240Z,4.82
2022-08-27T21:23:29.116Z,4.70
2022-08-27T21:26:01.288Z,4.45
2022-08-27T21:28:29.063Z,4.32
2022-08-27T21:30:56.485Z,4.62
2022-08-27T21:33:23.935Z,5.30
2022-08-27T21:35:51.726Z,5.07
2022-08-27T21:38:19.100Z,5.87
2022-08-27T21:40:46.677Z,5.50
2022-08-27T21:43:14.292Z,4.60
2022-08-27T21:45:42.958Z,5.90
2022-08-27T21:48:10.511Z,4.93
2022-08-27T21:50:38.354Z,5.00
2022-08-27T21:53:05.799Z,4.60
2022-08-27T21:55:33.697Z,5.00
2022-08-27T21:58:01.330Z,5.15
2022-08-27T22:00:28.914Z,5.75
2022-08-27T22:02:57.025Z,5.00
2022-08-27T22:05:24.638Z,5.32
2022-08-27T22:07:52.019Z,5.15
2022-08-27T22:10:19.946Z,4.82
2022-08-27T22:12:47.324Z,5.28
2022-08-27T22:15:14.824Z,5.30
2022-08-27T22:17:42.477Z,5.12
2022-08-27T22:20:10.284Z,4.80
2022-08-27T22:22:37.739Z,5.70
2022-08-27T22:25:06.111Z,5.20
2022-08-27T22:27:33.551Z,5.57
2022-08-27T22:30:00.917Z,5.22
2022-08-27T22:32:28.568Z,5.53
2022-08-27T22:34:55.919Z,5.43
2022-08-27T22:37:23.316Z,5.90
2022-08-27T22:39:51.134Z,5.57
2022-08-27T22:42:19.528Z,5.32
2022-08-27T22:44:47.567Z,5.45
2022-08-27T22:47:15.168Z,5.35
2022-08-27T22:49:43.170Z,5.30
2022-08-27T22:52:10.554Z,5.40
2022-08-27T22:54:38.195Z,5.45
2022-08-27T22:57:05.622Z,5.82
2022-08-27T22:59:38.849Z,5.53
2022-08-27T23:02:08.405Z,6.10
2022-08-27T23:04:53.973Z,4.93
2022-08-27T23:07:23.610Z,5.65
2022-08-27T23:09:50.991Z,5.43
2022-08-27T23:12:19.790Z,5.35
2022-08-27T23:14:47.495Z,5.10
2022-08-27T23:17:16.017Z,5.80
2022-08-27T23:19:43.459Z,5.45
2022-08-27T23:22:11.169Z,5.30
2022-08-27T23:24:58.495Z,5.70
2022-08-27T23:27:29.119Z,5.93
2022-08-27T23:29:57.452Z,6.68
2022-08-27T23:32:24.825Z,5.00
2022-08-27T23:34:52.653Z,6.00
2022-08-27T23:37:20.001Z,5.12
2022-08-27T23:39:47.467Z,5.70
2022-08-27T23:42:18.436Z,5.70
2022-08-27T23:44:46.361Z,5.57
2022-08-27T23:47:13.789Z,5.55
2022-08-27T23:49:43.285Z,6.20
2022-08-27T23:52:11.037Z,6.30
2022-08-27T23:54:38.509Z,6.05
2022-08-27T23:57:06.217Z,5.80
2022-08-27T23:59:33.553Z,5.45
